Decoded Metar for KIFA ( in _UNIDENTIFIED) (IATA:N/A) | Meteo·Mobile Aviation Weather
aviador You're here:

KIFA Decoded Metar

in _UNIDENTIFIED
Report Time2018-09-19 20:55:00
UTC Time2018-09-19 21:03:26
Flight Rules vfr VFR
Wind140° at 12 kt
W.Decomp.*RWY 13: 11.9 kt HW 1.9 kt RCW
W.Rank140° ranks 4
Current wind is above 140° avg. (8.3)
Visibility9999 m
Phenomena:N/A
Clouds:N/A
Expected CloudBase > 2,800 ft AGL from Temp-Dew spread
CeilingNone
Temp27°C (ISA +14)
Dew Point20°C (66% RH)
Heat Index28.5°C
AAT26.4°C
QNH1013 hPa
Density Alt3,094 ft
Elevation1,138 ft
Report Wrong Elevation
Raw Report
KIFA 192055Z AUTO 14012KT 10SM CLR 27/20 A2990 RMK AO2
T02680199=

Extra information for KIFA:More info

Metar Taf Metar & Taf Last 4 Metars F.Rules Stats Wind Profile Meteogram Temp Stats Metar ALERT Operation Metar Decoded Social comments